Andrew K — WDF8044 — position and weather

sailwx.info

Track history (hours):
 
Tides and Currents Weather Stations Pressure Air Temp Water Temp Dewpoint Dewpoint Depression Visibility Wind Speed Wind Dir Waves Ship Positions

Andrew K

Owner: G & H Towing Company, Galveston, TX. More information available from US FCC via Universal Licensing System and Coast Guard Vessel Documentation Center.

Last reported at 2017-Nov-22 21:00 UTC. Time now 2017-Nov-22 22:13 UTC.
Position N 29°43' W 095°01'.

Length 27 m; draft 4.6 m.

Type: Tug. MMSI: 367490790.

Date/timePositionNaut miles runAvg speedWind from/ knotsBaromVisibWave heightAir tempDewpointWater temp
2017-Nov-22 21:00N 29°43' W 095°01'1 1.4
2017-Nov-22 20:11N 29°42' W 095°01'1 2.7
2017-Nov-22 19:56N 29°42' W 095°00'  
2017-Nov-19 15:48N 29°44' W 095°07'8 0.2
2017-Nov-17 13:20N 29°44' W 095°16'0 0.5
2017-Nov-17 13:00N 29°44' W 095°16'0 0.5
2017-Nov-17 12:30N 29°44' W 095°17'2 2.8
2017-Nov-17 11:58N 29°43' W 095°15'0 0.0
2017-Nov-17 11:25N 29°43' W 095°15'0 0.0
2017-Nov-17 09:58N 29°43' W 095°15'0 0.0
2017-Nov-17 09:25N 29°43' W 095°15'0 0.0
2017-Nov-17 08:09N 29°43' W 095°15'0 0.0
2017-Nov-17 08:00N 29°43' W 095°15'0 0.0
2017-Nov-17 07:21N 29°43' W 095°15'0 0.0
2017-Nov-17 06:54N 29°43' W 095°15'0 0.0
2017-Nov-17 06:12N 29°43' W 095°15'0 0.0
2017-Nov-17 05:51N 29°43' W 095°15'0 0.0
2017-Nov-17 04:06N 29°43' W 095°15'0 0.1
2017-Nov-17 04:00N 29°43' W 095°15'0 0.0
2017-Nov-17 03:18N 29°43' W 095°15'1 0.4
2017-Nov-17 00:31N 29°44' W 095°14'0 4.8
2017-Nov-17 00:30N 29°44' W 095°14'1 1.1
2017-Nov-17 00:00N 29°43' W 095°13'1 0.4
2017-Nov-16 20:49N 29°44' W 095°12'3 2.3
2017-Nov-16 19:28N 29°44' W 095°09'0 0.1
2017-Nov-16 18:59N 29°44' W 095°09'2 0.8
2017-Nov-16 16:48N 29°44' W 095°07'5 1.0
2017-Nov-16 11:48N 29°44' W 095°12'0 0.5
2017-Nov-16 11:24N 29°44' W 095°12'0 0.0
2017-Nov-16 11:00N 29°44' W 095°12'1 0.3
2017-Nov-16 09:00N 29°45' W 095°12'2 3.8
2017-Nov-16 08:24N 29°44' W 095°09'1 0.0
2017-Nov-15 14:45N 29°44' W 095°08'5 3.2
2017-Nov-15 13:19N 29°44' W 095°13'1 3.6
2017-Nov-15 12:57N 29°44' W 095°12'0 1.1
2017-Nov-15 12:30N 29°45' W 095°12'3 5.4
2017-Nov-15 12:00N 29°44' W 095°09'0 0.0
2017-Nov-15 11:30N 29°44' W 095°09'0 0.0
2017-Nov-15 11:00N 29°44' W 095°09'0 0.1
2017-Nov-15 10:09N 29°44' W 095°09'0 0.3
2017-Nov-15 10:01N 29°44' W 095°09'0 0.0
2017-Nov-15 09:28N 29°44' W 095°09'0 0.0
2017-Nov-15 08:57N 29°44' W 095°09'0 0.0
2017-Nov-15 08:30N 29°44' W 095°09'0 0.0
2017-Nov-15 07:45N 29°44' W 095°09'0 0.0
2017-Nov-15 07:18N 29°44' W 095°09'0 0.0
2017-Nov-15 07:00N 29°44' W 095°09'0 0.0
2017-Nov-15 06:24N 29°44' W 095°09'0 0.0
2017-Nov-15 05:12N 29°44' W 095°09'0 0.0
2017-Nov-15 04:57N 29°44' W 095°09'0 0.0
2017-Nov-15 04:21N 29°44' W 095°09'0 0.0
2017-Nov-15 03:42N 29°44' W 095°09'0 0.0
2017-Nov-15 03:30N 29°44' W 095°09'1 1.2
2017-Nov-15 02:58N 29°44' W 095°09'1 1.2
2017-Nov-15 02:13N 29°45' W 095°10'1 4.5
2017-Nov-15 02:00N 29°44' W 095°09'2 4.0
2017-Nov-15 01:29N 29°44' W 095°07'0 0.0
2017-Nov-14 20:51N 29°44' W 095°07'2 0.4
2017-Nov-14 15:50N 29°44' W 095°09'0 0.2
2017-Nov-14 14:01N 29°44' W 095°09'1 6.2
2017-Nov-14 13:54N 29°44' W 095°09'0 0.5
2017-Nov-14 13:09N 29°45' W 095°10'1 4.5
2017-Nov-14 12:54N 29°44' W 095°09'2 0.7
2017-Nov-14 09:18N 29°45' W 095°11'3 0.8
2017-Nov-14 05:11N 29°44' W 095°08'0 0.4
2017-Nov-14 04:43N 29°44' W 095°08'1 0.0
2017-Nov-13 01:58N 29°44' W 095°07'0 0.0
2017-Nov-13 01:28N 29°44' W 095°07'0 0.0
2017-Nov-13 00:22N 29°44' W 095°07'2 2.6
2017-Nov-12 23:44N 29°44' W 095°09'0 0.1
2017-Nov-12 23:30N 29°44' W 095°09'0 0.0
2017-Nov-12 23:00N 29°44' W 095°09'  
Track history (hours):
 
Tides and Currents Weather Stations Pressure Air Temp Water Temp Dewpoint Dewpoint Depression Visibility Wind Speed Wind Dir Waves Ship Positions

Andrew K

Owner: G & H Towing Company, Galveston, TX. More information available from US FCC via Universal Licensing System and Coast Guard Vessel Documentation Center.

Last reported at 2017-Nov-22 21:00 UTC. Time now 2017-Nov-22 22:13 UTC.
Position N 29°43' W 095°01'.

Length 27 m; draft 4.6 m.

Type: Tug. MMSI: 367490790.

Date/timePositionNaut miles runAvg speedWind from/ knotsBaromVisibWave heightAir tempDewpointWater temp
2017-Nov-22 21:00N 29°43' W 095°01'1 1.4
2017-Nov-22 20:11N 29°42' W 095°01'1 2.7
2017-Nov-22 19:56N 29°42' W 095°00'  
2017-Nov-19 15:48N 29°44' W 095°07'8 0.2
2017-Nov-17 13:20N 29°44' W 095°16'0 0.5
2017-Nov-17 13:00N 29°44' W 095°16'0 0.5
2017-Nov-17 12:30N 29°44' W 095°17'2 2.8
2017-Nov-17 11:58N 29°43' W 095°15'0 0.0
2017-Nov-17 11:25N 29°43' W 095°15'0 0.0
2017-Nov-17 09:58N 29°43' W 095°15'0 0.0
2017-Nov-17 09:25N 29°43' W 095°15'0 0.0
2017-Nov-17 08:09N 29°43' W 095°15'0 0.0
2017-Nov-17 08:00N 29°43' W 095°15'0 0.0
2017-Nov-17 07:21N 29°43' W 095°15'0 0.0
2017-Nov-17 06:54N 29°43' W 095°15'0 0.0
2017-Nov-17 06:12N 29°43' W 095°15'0 0.0
2017-Nov-17 05:51N 29°43' W 095°15'0 0.0
2017-Nov-17 04:06N 29°43' W 095°15'0 0.1
2017-Nov-17 04:00N 29°43' W 095°15'0 0.0
2017-Nov-17 03:18N 29°43' W 095°15'1 0.4
2017-Nov-17 00:31N 29°44' W 095°14'0 4.8
2017-Nov-17 00:30N 29°44' W 095°14'1 1.1
2017-Nov-17 00:00N 29°43' W 095°13'1 0.4
2017-Nov-16 20:49N 29°44' W 095°12'3 2.3
2017-Nov-16 19:28N 29°44' W 095°09'0 0.1
2017-Nov-16 18:59N 29°44' W 095°09'2 0.8
2017-Nov-16 16:48N 29°44' W 095°07'5 1.0
2017-Nov-16 11:48N 29°44' W 095°12'0 0.5
2017-Nov-16 11:24N 29°44' W 095°12'0 0.0
2017-Nov-16 11:00N 29°44' W 095°12'1 0.3
2017-Nov-16 09:00N 29°45' W 095°12'2 3.8
2017-Nov-16 08:24N 29°44' W 095°09'1 0.0
2017-Nov-15 14:45N 29°44' W 095°08'5 3.2
2017-Nov-15 13:19N 29°44' W 095°13'1 3.6
2017-Nov-15 12:57N 29°44' W 095°12'0 1.1
2017-Nov-15 12:30N 29°45' W 095°12'3 5.4
2017-Nov-15 12:00N 29°44' W 095°09'0 0.0
2017-Nov-15 11:30N 29°44' W 095°09'0 0.0
2017-Nov-15 11:00N 29°44' W 095°09'0 0.1
2017-Nov-15 10:09N 29°44' W 095°09'0 0.3
2017-Nov-15 10:01N 29°44' W 095°09'0 0.0
2017-Nov-15 09:28N 29°44' W 095°09'0 0.0
2017-Nov-15 08:57N 29°44' W 095°09'0 0.0
2017-Nov-15 08:30N 29°44' W 095°09'0 0.0
2017-Nov-15 07:45N 29°44' W 095°09'0 0.0
2017-Nov-15 07:18N 29°44' W 095°09'0 0.0
2017-Nov-15 07:00N 29°44' W 095°09'0 0.0
2017-Nov-15 06:24N 29°44' W 095°09'0 0.0
2017-Nov-15 05:12N 29°44' W 095°09'0 0.0
2017-Nov-15 04:57N 29°44' W 095°09'0 0.0
2017-Nov-15 04:21N 29°44' W 095°09'0 0.0
2017-Nov-15 03:42N 29°44' W 095°09'0 0.0
2017-Nov-15 03:30N 29°44' W 095°09'1 1.2
2017-Nov-15 02:58N 29°44' W 095°09'1 1.2
2017-Nov-15 02:13N 29°45' W 095°10'1 4.5
2017-Nov-15 02:00N 29°44' W 095°09'2 4.0
2017-Nov-15 01:29N 29°44' W 095°07'0 0.0
2017-Nov-14 20:51N 29°44' W 095°07'2 0.4
2017-Nov-14 15:50N 29°44' W 095°09'0 0.2
2017-Nov-14 14:01N 29°44' W 095°09'1 6.2
2017-Nov-14 13:54N 29°44' W 095°09'0 0.5
2017-Nov-14 13:09N 29°45' W 095°10'1 4.5
2017-Nov-14 12:54N 29°44' W 095°09'2 0.7
2017-Nov-14 09:18N 29°45' W 095°11'3 0.8
2017-Nov-14 05:11N 29°44' W 095°08'0 0.4
2017-Nov-14 04:43N 29°44' W 095°08'1 0.0
2017-Nov-13 01:58N 29°44' W 095°07'0 0.0
2017-Nov-13 01:28N 29°44' W 095°07'0 0.0
2017-Nov-13 00:22N 29°44' W 095°07'2 2.6
2017-Nov-12 23:44N 29°44' W 095°09'0 0.1
2017-Nov-12 23:30N 29°44' W 095°09'0 0.0
2017-Nov-12 23:00N 29°44' W 095°09'  

Dump ship's entire track history